NCAR-RAP Real-Time Weather Data

Output produced by METARs form (22 June 2018  20:48 UTC)
found at http://weather.rap.ucar.edu/surface/
 
Conditions at: KPGD observed 22 June 2018  19:53 UTC
Temperature: 33.9°C (93°F)
Dewpoint: 21.1°C (70°F) [RH = 47%]
Pressure (altimeter): 29.97 inches Hg (1015.0 mb)
[Sea-level pressure: 1014.8 mb]
Winds: from the W (260 degrees) at 14 MPH (12 knots; 6.2 m/s)
Visibility: 10 or more miles (16+ km)
Ceiling: at least 12,000 feet AGL
Clouds: sky clear below 12,000 feet AGL
Present Weather: no significant weather observed at this time
KPGD 221953Z 26012KT 10SM CLR 34/21 A2997 RMK AO2 SLP148 T03390211

Conditions at: KPGD observed 22 June 2018  18:53 UTC
Temperature: 33.3°C (92°F)
Dewpoint: 21.1°C (70°F) [RH = 49%]
Pressure (altimeter): 29.99 inches Hg (1015.7 mb)
[Sea-level pressure: 1015.4 mb]
Winds: from the WNW (290 degrees) at 14 MPH (12 knots; 6.2 m/s)
Visibility: 10 or more miles (16+ km)
Ceiling: at least 12,000 feet AGL
Clouds: few clouds at 4500 feet AGL
Present Weather: no significant weather observed at this time
KPGD 221853Z 29012KT 10SM FEW045 33/21 A2999 RMK AO2 SLP154 T03330211

Conditions at: KPGD observed 22 June 2018  17:53 UTC
Temperature: 33.3°C (92°F)
Dewpoint: 21.7°C (71°F) [RH = 51%]
Pressure (altimeter): 30.00 inches Hg (1016.0 mb)
[Sea-level pressure: 1016.0 mb]
Winds: from the W (270 degrees) at 13 MPH (11 knots; 5.7 m/s)
Visibility: 10 or more miles (16+ km)
Ceiling: at least 12,000 feet AGL
Clouds: few clouds at 3800 feet AGL
Present Weather: no significant weather observed at this time
KPGD 221753Z 27011KT 10SM FEW038 33/22 A3000 RMK AO2 SLP160 T03330217 10339 20283 58006

Conditions at: KPGD observed 22 June 2018  16:53 UTC
Temperature: 32.8°C (91°F)
Dewpoint: 21.7°C (71°F) [RH = 52%]
Pressure (altimeter): 30.01 inches Hg (1016.3 mb)
[Sea-level pressure: 1016.3 mb]
Winds: from the W (280 degrees) at 9 MPH (8 knots; 4.2 m/s)
Visibility: 10 or more miles (16+ km)
Ceiling: at least 12,000 feet AGL
Clouds: scattered clouds at 3900 feet AGL
Present Weather: no significant weather observed at this time
KPGD 221653Z 28008KT 10SM SCT039 33/22 A3001 RMK AO2 SLP163 T03280217

Conditions at: KPGD observed 22 June 2018  15:53 UTC
Temperature: 31.7°C (89°F)
Dewpoint: 22.2°C (72°F) [RH = 57%]
Pressure (altimeter): 30.02 inches Hg (1016.7 mb)
[Sea-level pressure: 1016.5 mb]
Winds: from the WSW (250 degrees) at 12 MPH (10 knots; 5.2 m/s)
Visibility: 10 or more miles (16+ km)
Ceiling: at least 12,000 feet AGL
Clouds: scattered clouds at 3400 feet AGL
Present Weather: no significant weather observed at this time
KPGD 221553Z 25010KT 10SM SCT034 32/22 A3002 RMK AO2 SLP165 T03170222

Conditions at: KPGD observed 22 June 2018  14:53 UTC
Temperature: 32.2°C (90°F)
Dewpoint: 22.8°C (73°F) [RH = 58%]
Pressure (altimeter): 30.02 inches Hg (1016.7 mb)
[Sea-level pressure: 1016.6 mb]
Winds: from the WNW (300 degrees) at 8 MPH (7 knots; 3.6 m/s)
Visibility: 10 or more miles (16+ km)
Ceiling: at least 12,000 feet AGL
Clouds: scattered clouds at 3100 feet AGL
Present Weather: no significant weather observed at this time
KPGD 221453Z 30007KT 10SM SCT031 32/23 A3002 RMK AO2 SLP166 T03220228 51006

Conditions at: KPGD observed 22 June 2018  13:53 UTC
Temperature: 31.1°C (88°F)
Dewpoint: 22.8°C (73°F) [RH = 61%]
Pressure (altimeter): 30.02 inches Hg (1016.7 mb)
[Sea-level pressure: 1016.5 mb]
Winds: from the W (270 degrees) at 8 MPH (7 knots; 3.6 m/s)
Visibility: 10 or more miles (16+ km)
Ceiling: at least 12,000 feet AGL
Clouds: scattered clouds at 2500 feet AGL
Present Weather: no significant weather observed at this time
KPGD 221353Z 27007KT 10SM SCT025 31/23 A3002 RMK AO2 SLP165 T03110228

Conditions at: KPGD observed 22 June 2018  12:53 UTC
Temperature: 30.0°C (86°F)
Dewpoint: 22.8°C (73°F) [RH = 65%]
Pressure (altimeter): 30.02 inches Hg (1016.7 mb)
[Sea-level pressure: 1016.5 mb]
Winds: from the W (280 degrees) at 7 MPH (6 knots; 3.1 m/s)
Visibility: 10 or more miles (16+ km)
Ceiling: at least 12,000 feet AGL
Clouds: few clouds at 2500 feet AGL
Present Weather: no significant weather observed at this time
KPGD 221253Z 28006KT 10SM FEW025 30/23 A3002 RMK AO2 SLP165 T03000228

Conditions at: KPGD observed 22 June 2018  11:53 UTC
Temperature: 28.3°C (83°F)
Dewpoint: 23.3°C (74°F) [RH = 74%]
Pressure (altimeter): 30.00 inches Hg (1016.0 mb)
[Sea-level pressure: 1016.0 mb]
Winds: from the W (280 degrees) at 6 MPH (5 knots; 2.6 m/s)
Visibility: 10 or more miles (16+ km)
Ceiling: at least 12,000 feet AGL
Clouds: scattered clouds at 2000 feet AGL
Present Weather: no significant weather observed at this time
KPGD 221153Z 28005KT 10SM SCT020 28/23 A3000 RMK AO2 SLP160 T02830233 10283 20250 51021

Conditions at: KPGD observed 22 June 2018  10:53 UTC
Temperature: 25.6°C (78°F)
Dewpoint: 23.3°C (74°F) [RH = 87%]
Pressure (altimeter): 29.98 inches Hg (1015.3 mb)
[Sea-level pressure: 1015.4 mb]
Winds: calm
Visibility: 10 or more miles (16+ km)
Ceiling: at least 12,000 feet AGL
Clouds: scattered clouds at 2000 feet AGL
Present Weather: no significant weather observed at this time
KPGD 221053Z 00000KT 10SM SCT020 26/23 A2998 RMK AO2 SLP154 T02560233

Conditions at: KPGD observed 22 June 2018  09:53 UTC
Temperature: 25.0°C (77°F)
Dewpoint: 22.8°C (73°F) [RH = 88%]
Pressure (altimeter): 29.96 inches Hg (1014.6 mb)
[Sea-level pressure: 1014.6 mb]
Winds: calm
Visibility: 10 or more miles (16+ km)
Ceiling: at least 12,000 feet AGL
Clouds: sky clear below 12,000 feet AGL
Present Weather: no significant weather observed at this time
KPGD 220953Z 00000KT 10SM CLR 25/23 A2996 RMK AO2 SLP146 T02500228

Conditions at: KPGD observed 22 June 2018  08:53 UTC
Temperature: 25.6°C (78°F)
Dewpoint: 23.3°C (74°F) [RH = 87%]
Pressure (altimeter): 29.94 inches Hg (1014.0 mb)
[Sea-level pressure: 1013.9 mb]
Winds: calm
Visibility: 10 or more miles (16+ km)
Ceiling: at least 12,000 feet AGL
Clouds: sky clear below 12,000 feet AGL
Present Weather: automated observation with no human augmentation;
there may or may not be significant weather present at this time
KPGD 220853Z AUTO 00000KT 10SM CLR 26/23 A2994 RMK AO2 SLP139 T02560233 56010

Conditions at: KPGD observed 22 June 2018  07:53 UTC
Temperature: 25.6°C (78°F)
Dewpoint: 23.3°C (74°F) [RH = 87%]
Pressure (altimeter): 29.95 inches Hg (1014.3 mb)
[Sea-level pressure: 1014.1 mb]
Winds: calm
Visibility: 10 or more miles (16+ km)
Ceiling: at least 12,000 feet AGL
Clouds: sky clear below 12,000 feet AGL
Present Weather: automated observation with no human augmentation;
there may or may not be significant weather present at this time
KPGD 220753Z AUTO 00000KT 10SM CLR 26/23 A2995 RMK AO2 SLP141 T02560233

Conditions at: KPGD observed 22 June 2018  06:53 UTC
Temperature: 27.2°C (81°F)
Dewpoint: 23.3°C (74°F) [RH = 79%]
Pressure (altimeter): 29.96 inches Hg (1014.6 mb)
[Sea-level pressure: 1014.5 mb]
Winds: calm
Visibility: 10 or more miles (16+ km)
Ceiling: at least 12,000 feet AGL
Clouds: sky clear below 12,000 feet AGL
Present Weather: automated observation with no human augmentation;
there may or may not be significant weather present at this time
KPGD 220653Z AUTO 00000KT 10SM CLR 27/23 A2996 RMK AO2 SLP145 T02720233

Conditions at: KPGD observed 22 June 2018  05:53 UTC
Temperature: 26.1°C (79°F)
Dewpoint: 23.9°C (75°F) [RH = 88%]
Pressure (altimeter): 29.97 inches Hg (1015.0 mb)
[Sea-level pressure: 1015.0 mb]
Winds: calm
Visibility: 10 or more miles (16+ km)
Ceiling: at least 12,000 feet AGL
Clouds: sky clear below 12,000 feet AGL
Present Weather: automated observation with no human augmentation;
there may or may not be significant weather present at this time
KPGD 220553Z AUTO 00000KT 10SM CLR 26/24 A2997 RMK AO2 SLP150 T02610239 10306 20261 58006

Conditions at: KPGD observed 22 June 2018  04:53 UTC
Temperature: 27.2°C (81°F)
Dewpoint: 23.3°C (74°F) [RH = 79%]
Pressure (altimeter): 30.00 inches Hg (1016.0 mb)
[Sea-level pressure: 1015.8 mb]
Winds: calm
Visibility: 10 or more miles (16+ km)
Ceiling: at least 12,000 feet AGL
Clouds: sky clear below 12,000 feet AGL
Present Weather: automated observation with no human augmentation;
there may or may not be significant weather present at this time
KPGD 220453Z AUTO 00000KT 10SM CLR 27/23 A3000 RMK AO2 SLP158 T02720233 403390256

Conditions at: KPGD observed 22 June 2018  03:53 UTC
Temperature: 28.9°C (84°F)
Dewpoint: 22.2°C (72°F) [RH = 67%]
Pressure (altimeter): 30.00 inches Hg (1016.0 mb)
[Sea-level pressure: 1016.0 mb]
Winds: from the W (280 degrees) at 3 MPH (3 knots; 1.6 m/s)
Visibility: 10 or more miles (16+ km)
Ceiling: at least 12,000 feet AGL
Clouds: sky clear below 12,000 feet AGL
Present Weather: automated observation with no human augmentation;
there may or may not be significant weather present at this time
KPGD 220353Z AUTO 28003KT 10SM CLR 29/22 A3000 RMK AO2 SLP160 T02890222

Conditions at: KPGD observed 22 June 2018  02:53 UTC
Temperature: 28.3°C (83°F)
Dewpoint: 23.3°C (74°F) [RH = 74%]
Pressure (altimeter): 29.99 inches Hg (1015.7 mb)
[Sea-level pressure: 1015.5 mb]
Winds: from the WNW (290 degrees) at 7 MPH (6 knots; 3.1 m/s)
Visibility: 10 or more miles (16+ km)
Ceiling: at least 12,000 feet AGL
Clouds: sky clear below 12,000 feet AGL
Present Weather: automated observation with no human augmentation;
there may or may not be significant weather present at this time
KPGD 220253Z AUTO 29006KT 10SM CLR 28/23 A2999 RMK AO2 SLP155 T02830233 53013

Conditions at: KPGD observed 22 June 2018  01:53 UTC
Temperature: 29.4°C (85°F)
Dewpoint: 23.3°C (74°F) [RH = 70%]
Pressure (altimeter): 29.97 inches Hg (1015.0 mb)
[Sea-level pressure: 1015.0 mb]
Winds: from the W (280 degrees) at 7 MPH (6 knots; 3.1 m/s)
Visibility: 10 or more miles (16+ km)
Ceiling: at least 12,000 feet AGL
Clouds: sky clear below 12,000 feet AGL
Present Weather: automated observation with no human augmentation;
there may or may not be significant weather present at this time
KPGD 220153Z AUTO 28006KT 10SM CLR 29/23 A2997 RMK AO2 SLP150 T02940233

Conditions at: KPGD observed 22 June 2018  00:53 UTC
Temperature: 30.0°C (86°F)
Dewpoint: 22.8°C (73°F) [RH = 65%]
Pressure (altimeter): 29.96 inches Hg (1014.6 mb)
[Sea-level pressure: 1014.7 mb]
Winds: from the W (270 degrees) at 7 MPH (6 knots; 3.1 m/s)
Visibility: 10 or more miles (16+ km)
Ceiling: at least 12,000 feet AGL
Clouds: few clouds at 2900 feet AGL
Present Weather: automated observation with no human augmentation;
there may or may not be significant weather present at this time
KPGD 220053Z AUTO 27006KT 10SM FEW029 30/23 A2996 RMK AO2 LTG DSNT N SLP147 T03000228

Conditions at: KPGD observed 21 June 2018  23:53 UTC
Temperature: 30.6°C (87°F)
Dewpoint: 23.3°C (74°F) [RH = 65%]
Pressure (altimeter): 29.95 inches Hg (1014.3 mb)
[Sea-level pressure: 1014.2 mb]
Winds: from the W (280 degrees) at 8 MPH (7 knots; 3.6 m/s)
Visibility: 10 or more miles (16+ km)
Ceiling: at least 12,000 feet AGL
Clouds: sky clear below 12,000 feet AGL
Present Weather: no significant weather observed at this time
KPGD 212353Z 28007KT 10SM CLR 31/23 A2995 RMK AO2 SLP142 T03060233 10339 20306 53006

Conditions at: KPGD observed 21 June 2018  22:53 UTC
Temperature: 31.1°C (88°F)
Dewpoint: 22.8°C (73°F) [RH = 61%]
Pressure (altimeter): 29.94 inches Hg (1014.0 mb)
[Sea-level pressure: 1014.0 mb]
Winds: from the W (270 degrees) at 9 MPH (8 knots; 4.2 m/s)
Visibility: 10 or more miles (16+ km)
Ceiling: at least 12,000 feet AGL
Clouds: sky clear below 12,000 feet AGL
Present Weather: no significant weather observed at this time
KPGD 212253Z 27008KT 10SM CLR 31/23 A2994 RMK AO2 LTG DSNT N AND NE SLP140 T03110228

Conditions at: KPGD observed 21 June 2018  21:53 UTC
Temperature: 31.7°C (89°F)
Dewpoint: 22.2°C (72°F) [RH = 57%]
Pressure (altimeter): 29.92 inches Hg (1013.3 mb)
[Sea-level pressure: 1013.1 mb]
Winds: from the W (270 degrees) at 10 MPH (9 knots; 4.7 m/s)
Visibility: 10 or more miles (16+ km)
Ceiling: at least 12,000 feet AGL
Clouds: sky clear below 12,000 feet AGL
Present Weather: no significant weather observed at this time
KPGD 212153Z 27009KT 10SM CLR 32/22 A2992 RMK AO2 LTG DSNT NE AND E SLP131 T03170222

Conditions at: KPGD observed 21 June 2018  20:53 UTC
Temperature: 32.8°C (91°F)
Dewpoint: 22.2°C (72°F) [RH = 54%]
Pressure (altimeter): 29.93 inches Hg (1013.6 mb)
[Sea-level pressure: 1013.5 mb]
Winds: from the W (260 degrees) at 14 MPH (12 knots; 6.2 m/s)
gusting to 20 MPH (17 knots; 8.8 m/s)
Visibility: 10 or more miles (16+ km)
Ceiling: 3800 feet AGL
Clouds: broken clouds at 3800 feet AGL
broken clouds at 4800 feet AGL
Present Weather: no significant weather observed at this time
KPGD 212053Z 26012G17KT 10SM BKN038 BKN048 33/22 A2993 RMK AO2 LTG DSNT NE AND E SLP135 T03280222 55007